Сычково

Карта отелей и гостиниц, располагающихся рядом с аэропортом Сычково :

Сычково
Бобруйск
Могилёвская область 53° 12' 40.6188" N, 29° 7' 43.14" E
Код аэродрома ИКАО
UMNS
Код аэродрома RU
УМНС
Координаты
N53.21128° E029.12865°
Превышение над уровнем моря
156
Основная полоса
07/25
Курс магнитный
071,2/251,2
Длина основной ВПП
710
Ширина основной ВПП
80
Покрытие основной ВПП
Нетвёрдое (грунт)
Освещение ВПП
Нет
Тип: 
Аэродром
Класс аэродрома: 
Принадлежность: 
ДОСААФ
Статус: 
Действующий
Сайт: 
E-mail аэродрома: 
aerobobruisk@tut.by
Страна: 
Беларусь
Регион: 
Могилёвская область
Город: 
Бобруйск
Дополнительная информация: 
Оператор: Бобруйский АСК ДОСААФ.

Найти трансфер

С помощью этой формы Вы можете найти трансфер из аэропорта Сычково в город, аэропорт или вокзал:

Погода в аэропортах:

Авиационная погода в Алматы

Регион: 
Погода METAR: 
UAAA 221800Z 26001MPS 1600 R23R/P2000N R23L/P2000N BR SCT011 BKN100 M04/M05 Q1023 NOSIG
Время наблюдения
2022-01-22T18:00:00Z
Температура C
-4.0
Точка росы
-5.0
Направление ветра
260
Скорость ветра (узлы)
2
Метео видимость
0.99
Облачность
SCT
BKN
Нижняя граница облачности (футы)
1100
10000
Явления погоды
BR
Условия полета
LIFR
Аэропорт подробнее: 
SCT – разбросанная отдельная облачность; BKN – значительная (рассеянная, разорванная) облачность;
BR – дымка (видимость от 1 до 9 км);

Авиационная погода в Кокшетау

Регион: 
Погода METAR: 
UACK 221200Z 03001MPS 6000 -SG BKN002 M16/M18 Q1028 TEMPO BKN003 RMK QBB070 QFE747/0997
Время наблюдения
2022-01-22T12:00:00Z
Температура C
-16.0
Точка росы
-18.0
Направление ветра
30
Скорость ветра (узлы)
2
Метео видимость
3.73
Облачность
BKN
Нижняя граница облачности (футы)
200
Явления погоды
-SG
Условия полета
LIFR
Аэропорт подробнее: 
BKN – значительная (рассеянная, разорванная) облачность;
SG - снежные зёрна;

Авиационная погода в Перми

Регион: 
Погода METAR: 
USPP 221800Z 11003MPS 5000 -SN BR OVC015 M15/M17 Q1029 R21/090060 NOSIG RMK QFE760
Время наблюдения
2022-01-22T18:00:00Z
Температура C
-15.0
Точка росы
-17.0
Направление ветра
110
Скорость ветра (узлы)
6
Метео видимость
3.11
Облачность
OVC
Нижняя граница облачности (футы)
1500
Явления погоды
-SN BR
Условия полета
MVFR
Аэропорт подробнее: 
OVC – сплошная облачность;
-SN – слабый снег; BR – дымка (видимость от 1 до 9 км);

Авиационная погода в Краснодаре

Регион: 
Погода METAR: 
URKK 221800Z 06003MPS 1800 R05R/P2000U SHSN SCT007 BKN025CB M01/M02 Q1014 R05R/650533 TEMPO 0500 +SHSN BKN002 BKN016CB RMK QFE758
Время наблюдения
2022-01-22T18:00:00Z
Температура C
-1.0
Точка росы
-2.0
Направление ветра
60
Скорость ветра (узлы)
6
Метео видимость
1.12
Облачность
SCT
BKN
Нижняя граница облачности (футы)
700
2500
Явления погоды
SHSN
Условия полета
IFR
Аэропорт подробнее: 
SCT – разбросанная отдельная облачность; BKN – значительная (рассеянная, разорванная) облачность;
SHSN - ливневой снег;